sensor_id;sensor_type;location;lat;lon;timestamp;pressure;altitude;pressure_sealevel;temperature;humidity
49585;BME280;35491;49.142;9.210;2023-05-25T06:50:29;100467.22;;;12.87;53.83
49585;BME280;35491;49.142;9.210;2023-05-25T06:51:34;100464.72;;;13.04;53.39
49585;BME280;35491;49.142;9.210;2023-05-25T06:52:44;100461.25;;;13.21;53.17
49585;BME280;35491;49.142;9.210;2023-05-25T06:53:46;100469.13;;;13.23;53.19
49585;BME280;35491;49.142;9.210;2023-05-25T06:54:50;100456.13;;;13.46;52.82
49585;BME280;35491;49.142;9.210;2023-05-25T06:55:51;100458.88;;;13.36;52.94
49585;BME280;35491;49.142;9.210;2023-05-25T06:56:55;100457.50;;;13.32;53.11
49585;BME280;35491;49.142;9.210;2023-05-25T06:57:59;100461.41;;;13.38;52.84
49585;BME280;35491;49.142;9.210;2023-05-25T06:59:00;100460.28;;;13.40;52.94
49585;BME280;35491;49.142;9.210;2023-05-25T07:00:05;100467.81;;;13.55;52.66
49585;BME280;35491;49.142;9.210;2023-05-25T07:01:10;100459.56;;;13.75;52.25
49585;BME280;35491;49.142;9.210;2023-05-25T07:02:12;100470.59;;;13.89;51.78
49585;BME280;35491;49.142;9.210;2023-05-25T07:22:25;100438.66;;;14.39;50.53
49585;BME280;35491;49.142;9.210;2023-05-25T07:23:30;100447.13;;;14.53;50.14
49585;BME280;35491;49.142;9.210;2023-05-25T07:24:34;100437.31;;;14.70;49.76
49585;BME280;35491;49.142;9.210;2023-05-25T07:25:36;100433.09;;;14.67;49.94
49585;BME280;35491;49.142;9.210;2023-05-25T07:26:40;100437.59;;;14.58;50.03
49585;BME280;35491;49.142;9.210;2023-05-25T07:27:48;100440.19;;;14.76;49.71
49585;BME280;35491;49.142;9.210;2023-05-25T07:28:57;100440.94;;;15.03;49.33
49585;BME280;35491;49.142;9.210;2023-05-25T07:30:06;100442.34;;;15.16;48.94
49585;BME280;35491;49.142;9.210;2023-05-25T07:31:16;100437.31;;;15.46;48.17
49585;BME280;35491;49.142;9.210;2023-05-25T07:32:22;100439.03;;;15.55;48.45
49585;BME280;35491;49.142;9.210;2023-05-25T07:33:31;100442.03;;;15.60;47.83
49585;BME280;35491;49.142;9.210;2023-05-25T07:34:42;100433.13;;;15.43;48.31
49585;BME280;35491;49.142;9.210;2023-05-25T07:35:48;100439.00;;;15.38;48.46
49585;BME280;35491;49.142;9.210;2023-05-25T07:36:59;100428.25;;;15.38;48.36
49585;BME280;35491;49.142;9.210;2023-05-25T07:38:09;100441.16;;;15.26;48.70
49585;BME280;35491;49.142;9.210;2023-05-25T07:39:19;100431.06;;;15.20;48.92
49585;BME280;35491;49.142;9.210;2023-05-25T07:40:25;100434.25;;;15.16;48.70
49585;BME280;35491;49.142;9.210;2023-05-25T07:41:35;100430.22;;;15.20;48.81
49585;BME280;35491;49.142;9.210;2023-05-25T07:42:42;100437.44;;;15.11;48.82
49585;BME280;35491;49.142;9.210;2023-05-25T07:43:52;100436.97;;;15.24;48.81
49585;BME280;35491;49.142;9.210;2023-05-25T07:45:00;100436.16;;;15.48;48.49
49585;BME280;35491;49.142;9.210;2023-05-25T07:46:10;100434.63;;;15.54;48.17
49585;BME280;35491;49.142;9.210;2023-05-25T07:47:21;100435.28;;;15.81;47.95
49585;BME280;35491;49.142;9.210;2023-05-25T07:48:27;100433.31;;;15.91;47.62
49585;BME280;35491;49.142;9.210;2023-05-25T07:49:37;100433.63;;;15.88;47.73
49585;BME280;35491;49.142;9.210;2023-05-25T07:50:44;100433.28;;;15.83;47.55
49585;BME280;35491;49.142;9.210;2023-05-25T07:51:56;100434.63;;;16.12;47.38
49585;BME280;35491;49.142;9.210;2023-05-25T07:53:08;100436.59;;;16.26;46.98
49585;BME280;35491;49.142;9.210;2023-05-25T07:54:14;100435.13;;;16.15;46.96
49585;BME280;35491;49.142;9.210;2023-05-25T07:55:21;100438.88;;;15.98;47.60
49585;BME280;35491;49.142;9.210;2023-05-25T07:56:26;100433.63;;;16.13;47.27
49585;BME280;35491;49.142;9.210;2023-05-25T07:57:34;100433.97;;;16.01;47.11
49585;BME280;35491;49.142;9.210;2023-05-25T07:58:38;100435.94;;;16.16;47.17
49585;BME280;35491;49.142;9.210;2023-05-25T07:59:46;100431.25;;;16.10;47.33
49585;BME280;35491;49.142;9.210;2023-05-25T08:00:54;100437.16;;;15.97;47.68
49585;BME280;35491;49.142;9.210;2023-05-25T13:09:46;100369.69;;;22.29;37.00
49585;BME280;35491;49.142;9.210;2023-05-25T14:19:12;100336.66;;;23.03;35.42
49585;BME280;35491;49.142;9.210;2023-05-25T14:20:23;100334.19;;;23.27;35.26
49585;BME280;35491;49.142;9.210;2023-05-25T14:21:32;100325.25;;;23.45;34.73
49585;BME280;35491;49.142;9.210;2023-05-25T14:24:53;100326.72;;;24.28;33.86
49585;BME280;35491;49.142;9.210;2023-05-25T14:26:00;100330.41;;;24.34;33.42
49585;BME280;35491;49.142;9.210;2023-05-25T14:27:05;100323.38;;;24.75;33.31
49585;BME280;35491;49.142;9.210;2023-05-25T14:28:17;100322.31;;;25.19;32.85
49585;BME280;35491;49.142;9.210;2023-05-25T14:30:45;100318.81;;;25.00;32.37
49585;BME280;35491;49.142;9.210;2023-05-25T14:31:56;100321.19;;;24.96;32.46
49585;BME280;35491;49.142;9.210;2023-05-25T14:33:01;100319.16;;;24.91;32.85
49585;BME280;35491;49.142;9.210;2023-05-25T14:34:18;100309.84;;;25.35;31.64
49585;BME280;35491;49.142;9.210;2023-05-25T14:36:28;100316.59;;;25.20;32.01
49585;BME280;35491;49.142;9.210;2023-05-25T14:37:48;100318.25;;;24.49;32.45
49585;BME280;35491;49.142;9.210;2023-05-25T14:38:55;100318.19;;;24.67;32.81
49585;BME280;35491;49.142;9.210;2023-05-25T14:40:03;100314.72;;;24.60;32.89
49585;BME280;35491;49.142;9.210;2023-05-25T14:41:11;100326.03;;;24.94;32.65
49585;BME280;35491;49.142;9.210;2023-05-25T14:43:29;100325.91;;;24.89;32.31
49585;BME280;35491;49.142;9.210;2023-05-25T14:44:38;100323.38;;;24.57;32.63
49585;BME280;35491;49.142;9.210;2023-05-25T14:45:48;100320.50;;;24.70;32.42
49585;BME280;35491;49.142;9.210;2023-05-25T14:46:55;100314.97;;;24.58;32.85
49585;BME280;35491;49.142;9.210;2023-05-25T14:49:13;100322.78;;;25.16;31.95
49585;BME280;35491;49.142;9.210;2023-05-25T14:51:23;100326.41;;;24.67;32.58
49585;BME280;35491;49.142;9.210;2023-05-25T14:52:27;100323.34;;;24.45;32.76
49585;BME280;35491;49.142;9.210;2023-05-25T14:54:30;100325.88;;;24.77;32.36
49585;BME280;35491;49.142;9.210;2023-05-25T14:56:50;100323.63;;;25.28;31.72
49585;BME280;35491;49.142;9.210;2023-05-25T15:00:09;100336.47;;;25.28;31.27
49585;BME280;35491;49.142;9.210;2023-05-25T15:02:15;100328.56;;;24.96;32.19
49585;BME280;35491;49.142;9.210;2023-05-25T15:04:19;100330.81;;;24.99;31.88
49585;BME280;35491;49.142;9.210;2023-05-25T15:05:25;100333.03;;;24.78;32.22
49585;BME280;35491;49.142;9.210;2023-05-25T15:06:32;100339.84;;;24.87;31.86
49585;BME280;35491;49.142;9.210;2023-05-25T15:08:43;100326.97;;;24.88;32.13
49585;BME280;35491;49.142;9.210;2023-05-25T15:10:55;100333.34;;;24.70;32.48
49585;BME280;35491;49.142;9.210;2023-05-25T15:11:58;100339.72;;;24.45;32.60
49585;BME280;35491;49.142;9.210;2023-05-25T15:13:01;100329.97;;;24.00;33.12
49585;BME280;35491;49.142;9.210;2023-05-25T15:14:04;100329.81;;;23.95;33.28
49585;BME280;35491;49.142;9.210;2023-05-25T15:19:02;100327.41;;;24.24;33.05
49585;BME280;35491;49.142;9.210;2023-05-25T15:20:09;100328.59;;;24.09;33.18
49585;BME280;35491;49.142;9.210;2023-05-25T15:21:11;100336.00;;;23.83;33.81
49585;BME280;35491;49.142;9.210;2023-05-25T15:22:17;100332.75;;;23.93;33.12
49585;BME280;35491;49.142;9.210;2023-05-25T15:23:18;100329.19;;;23.93;33.35
49585;BME280;35491;49.142;9.210;2023-05-25T15:24:22;100326.72;;;24.10;33.29
49585;BME280;35491;49.142;9.210;2023-05-25T15:25:27;100320.72;;;24.20;33.37
49585;BME280;35491;49.142;9.210;2023-05-25T15:27:32;100320.38;;;23.91;33.68
49585;BME280;35491;49.142;9.210;2023-05-25T15:28:36;100320.91;;;23.81;34.01
49585;BME280;35491;49.142;9.210;2023-05-25T15:29:37;100329.97;;;23.56;34.21
49585;BME280;35491;49.142;9.210;2023-05-25T15:30:41;100327.13;;;23.44;34.19
49585;BME280;35491;49.142;9.210;2023-05-25T15:31:45;100319.28;;;23.29;34.58
49585;BME280;35491;49.142;9.210;2023-05-25T15:32:48;100320.13;;;23.30;34.80
49585;BME280;35491;49.142;9.210;2023-05-25T15:33:53;100321.78;;;23.31;34.33
49585;BME280;35491;49.142;9.210;2023-05-25T15:35:04;100317.13;;;23.38;34.47
49585;BME280;35491;49.142;9.210;2023-05-25T15:36:08;100318.44;;;23.29;34.43
49585;BME280;35491;49.142;9.210;2023-05-25T15:39:37;100318.09;;;23.69;34.24
49585;BME280;35491;49.142;9.210;2023-05-25T15:42:03;100316.97;;;23.33;34.28
49585;BME280;35491;49.142;9.210;2023-05-25T15:45:38;100318.00;;;23.32;34.40
49585;BME280;35491;49.142;9.210;2023-05-25T15:46:42;100320.66;;;23.13;34.48
49585;BME280;35491;49.142;9.210;2023-05-25T15:47:43;100321.34;;;23.02;35.17
49585;BME280;35491;49.142;9.210;2023-05-25T15:51:14;100323.94;;;23.22;34.69
49585;BME280;35491;49.142;9.210;2023-05-25T15:52:15;100327.59;;;23.41;34.41
49585;BME280;35491;49.142;9.210;2023-05-25T15:53:19;100315.16;;;23.20;34.71
49585;BME280;35491;49.142;9.210;2023-05-25T15:56:42;100306.16;;;23.19;34.51
49585;BME280;35491;49.142;9.210;2023-05-25T15:57:48;100310.31;;;23.22;34.72
49585;BME280;35491;49.142;9.210;2023-05-25T15:58:52;100315.63;;;23.42;34.48
49585;BME280;35491;49.142;9.210;2023-05-25T16:00:57;100307.84;;;23.64;34.19
49585;BME280;35491;49.142;9.210;2023-05-25T16:02:10;100315.66;;;23.61;33.93
49585;BME280;35491;49.142;9.210;2023-05-25T16:04:29;100310.31;;;23.47;33.85
49585;BME280;35491;49.142;9.210;2023-05-25T16:05:39;100306.59;;;23.42;33.96
49585;BME280;35491;49.142;9.210;2023-05-25T16:06:40;100303.63;;;23.43;34.26
49585;BME280;35491;49.142;9.210;2023-05-25T16:08:51;100304.59;;;23.30;34.50
49585;BME280;35491;49.142;9.210;2023-05-25T16:15:17;100309.66;;;23.27;34.57
49585;BME280;35491;49.142;9.210;2023-05-25T16:17:34;100307.38;;;23.24;34.82
49585;BME280;35491;49.142;9.210;2023-05-25T16:18:40;100311.47;;;23.08;34.79
49585;BME280;35491;49.142;9.210;2023-05-25T16:19:41;100310.19;;;23.10;35.36
49585;BME280;35491;49.142;9.210;2023-05-25T16:20:45;100309.28;;;23.16;35.11
49585;BME280;35491;49.142;9.210;2023-05-25T16:21:46;100317.56;;;23.03;35.48
49585;BME280;35491;49.142;9.210;2023-05-25T16:28:21;100311.38;;;22.89;35.31
49585;BME280;35491;49.142;9.210;2023-05-25T16:29:28;100315.44;;;23.05;35.25
49585;BME280;35491;49.142;9.210;2023-05-25T16:34:46;100320.84;;;23.12;34.61
49585;BME280;35491;49.142;9.210;2023-05-25T16:38:04;100313.28;;;23.20;34.88
49585;BME280;35491;49.142;9.210;2023-05-25T16:41:41;100314.63;;;23.04;35.27
49585;BME280;35491;49.142;9.210;2023-05-25T16:44:23;100312.19;;;22.89;34.74
49585;BME280;35491;49.142;9.210;2023-05-25T16:45:30;100307.38;;;22.92;35.17
49585;BME280;35491;49.142;9.210;2023-05-25T16:49:04;100304.59;;;22.98;35.07
49585;BME280;35491;49.142;9.210;2023-05-25T16:51:14;100302.16;;;23.15;35.05
49585;BME280;35491;49.142;9.210;2023-05-25T16:54:33;100303.06;;;23.09;34.78
49585;BME280;35491;49.142;9.210;2023-05-25T16:55:37;100298.31;;;22.98;35.40
49585;BME280;35491;49.142;9.210;2023-05-25T16:56:40;100302.00;;;22.78;35.25
49585;BME280;35491;49.142;9.210;2023-05-25T16:57:53;100313.88;;;22.90;34.99
49585;BME280;35491;49.142;9.210;2023-05-25T16:59:56;100304.47;;;22.86;35.04
49585;BME280;35491;49.142;9.210;2023-05-25T17:04:40;100305.69;;;22.90;35.09
49585;BME280;35491;49.142;9.210;2023-05-25T17:05:50;100308.44;;;22.90;35.04
49585;BME280;35491;49.142;9.210;2023-05-25T17:09:22;100309.59;;;22.76;35.02
49585;BME280;35491;49.142;9.210;2023-05-25T17:11:30;100313.00;;;22.65;35.29
49585;BME280;35491;49.142;9.210;2023-05-25T17:19:28;100305.97;;;22.82;35.29
49585;BME280;35491;49.142;9.210;2023-05-25T17:23:09;100315.50;;;22.66;35.51
49585;BME280;35491;49.142;9.210;2023-05-25T17:25:17;100311.69;;;22.74;35.56
49585;BME280;35491;49.142;9.210;2023-05-25T17:26:20;100304.16;;;22.69;35.66
49585;BME280;35491;49.142;9.210;2023-05-25T17:27:22;100306.66;;;22.71;35.34
49585;BME280;35491;49.142;9.210;2023-05-25T17:28:29;100297.28;;;22.67;35.57
49585;BME280;35491;49.142;9.210;2023-05-25T17:34:51;100298.31;;;22.66;35.79
49585;BME280;35491;49.142;9.210;2023-05-25T17:39:28;100305.94;;;22.50;35.76
49585;BME280;35491;49.142;9.210;2023-05-25T17:40:35;100301.75;;;22.48;35.62
49585;BME280;35491;49.142;9.210;2023-05-25T17:42:41;100298.97;;;22.61;35.64
49585;BME280;35491;49.142;9.210;2023-05-25T17:43:52;100303.81;;;22.59;35.42
49585;BME280;35491;49.142;9.210;2023-05-25T17:53:26;100297.94;;;22.62;35.89
49585;BME280;35491;49.142;9.210;2023-05-25T18:08:58;100307.22;;;22.41;36.07
49585;BME280;35491;49.142;9.210;2023-05-25T18:10:01;100312.69;;;22.41;36.06
49585;BME280;35491;49.142;9.210;2023-05-25T18:12:09;100316.03;;;22.29;36.61
49585;BME280;35491;49.142;9.210;2023-05-25T18:13:26;100309.34;;;22.32;36.50
49585;BME280;35491;49.142;9.210;2023-05-25T18:14:27;100319.84;;;22.28;36.38
49585;BME280;35491;49.142;9.210;2023-05-25T18:15:39;100310.44;;;22.24;36.65
49585;BME280;35491;49.142;9.210;2023-05-25T18:16:46;100318.59;;;22.24;36.34
49585;BME280;35491;49.142;9.210;2023-05-25T18:18:10;100317.38;;;22.13;36.55
49585;BME280;35491;49.142;9.210;2023-05-25T18:20:40;100320.50;;;22.17;36.63
49585;BME280;35491;49.142;9.210;2023-05-25T18:21:44;100316.28;;;22.21;36.93
49585;BME280;35491;49.142;9.210;2023-05-25T18:22:48;100317.53;;;22.25;36.56
49585;BME280;35491;49.142;9.210;2023-05-25T18:23:49;100321.56;;;22.16;36.63
49585;BME280;35491;49.142;9.210;2023-05-25T18:25:06;100325.72;;;22.19;37.00
49585;BME280;35491;49.142;9.210;2023-05-25T18:26:13;100319.88;;;22.15;36.90
49585;BME280;35491;49.142;9.210;2023-05-25T18:27:14;100323.00;;;22.19;37.03
49585;BME280;35491;49.142;9.210;2023-05-25T18:28:23;100329.53;;;22.11;36.99
49585;BME280;35491;49.142;9.210;2023-05-25T18:29:24;100331.66;;;22.09;37.18
49585;BME280;35491;49.142;9.210;2023-05-25T18:30:28;100325.34;;;22.08;37.18
49585;BME280;35491;49.142;9.210;2023-05-25T18:31:29;100332.47;;;22.09;37.37
49585;BME280;35491;49.142;9.210;2023-05-25T18:32:33;100329.97;;;22.08;36.94
49585;BME280;35491;49.142;9.210;2023-05-25T18:33:40;100326.38;;;22.07;37.23
49585;BME280;35491;49.142;9.210;2023-05-25T18:34:43;100330.38;;;22.11;37.05
49585;BME280;35491;49.142;9.210;2023-05-25T18:35:51;100329.75;;;22.09;37.35
49585;BME280;35491;49.142;9.210;2023-05-25T18:36:55;100329.97;;;22.01;37.63
49585;BME280;35491;49.142;9.210;2023-05-25T18:38:17;100324.72;;;22.06;37.68
49585;BME280;35491;49.142;9.210;2023-05-25T18:39:27;100324.31;;;22.03;37.60
49585;BME280;35491;49.142;9.210;2023-05-25T18:40:36;100319.72;;;21.96;38.00
49585;BME280;35491;49.142;9.210;2023-05-25T18:41:43;100325.41;;;21.95;37.89
49585;BME280;35491;49.142;9.210;2023-05-25T18:42:49;100335.88;;;21.91;38.02
49585;BME280;35491;49.142;9.210;2023-05-25T18:44:07;100333.34;;;21.90;38.26
49585;BME280;35491;49.142;9.210;2023-05-25T18:45:11;100319.56;;;21.91;37.86
49585;BME280;35491;49.142;9.210;2023-05-25T18:46:15;100325.81;;;21.92;38.22
49585;BME280;35491;49.142;9.210;2023-05-25T18:47:19;100327.72;;;21.91;38.01
49585;BME280;35491;49.142;9.210;2023-05-25T18:48:49;100330.44;;;21.91;38.29
49585;BME280;35491;49.142;9.210;2023-05-25T18:49:53;100335.66;;;21.86;38.40
49585;BME280;35491;49.142;9.210;2023-05-25T18:50:55;100330.44;;;21.85;38.08
49585;BME280;35491;49.142;9.210;2023-05-25T18:52:13;100325.81;;;21.85;38.07
49585;BME280;35491;49.142;9.210;2023-05-25T18:53:19;100330.84;;;21.81;38.36
49585;BME280;35491;49.142;9.210;2023-05-25T18:54:20;100325.63;;;21.80;38.19
49585;BME280;35491;49.142;9.210;2023-05-25T18:55:26;100332.94;;;21.79;38.30
49585;BME280;35491;49.142;9.210;2023-05-25T18:56:33;100336.06;;;21.90;38.07
49585;BME280;35491;49.142;9.210;2023-05-25T18:57:39;100329.34;;;21.92;38.22
49585;BME280;35491;49.142;9.210;2023-05-25T18:58:42;100335.88;;;21.91;38.22
49585;BME280;35491;49.142;9.210;2023-05-25T18:59:47;100332.13;;;21.86;38.41
49585;BME280;35491;49.142;9.210;2023-05-25T19:00:51;100332.31;;;21.77;38.29
49585;BME280;35491;49.142;9.210;2023-05-25T19:01:55;100330.44;;;21.78;38.36
49585;BME280;35491;49.142;9.210;2023-05-25T19:03:02;100332.13;;;21.72;37.70
49585;BME280;35491;49.142;9.210;2023-05-25T19:04:09;100339.25;;;21.66;37.83
49585;BME280;35491;49.142;9.210;2023-05-25T19:05:10;100339.25;;;21.60;38.14
49585;BME280;35491;49.142;9.210;2023-05-25T19:06:20;100333.41;;;21.63;37.87
49585;BME280;35491;49.142;9.210;2023-05-25T19:07:29;100343.00;;;21.65;37.66
49585;BME280;35491;49.142;9.210;2023-05-25T19:08:35;100341.34;;;21.71;37.48
49585;BME280;35491;49.142;9.210;2023-05-25T19:09:36;100339.88;;;21.69;37.71
49585;BME280;35491;49.142;9.210;2023-05-25T19:10:40;100341.97;;;21.53;37.94
49585;BME280;35491;49.142;9.210;2023-05-25T19:11:51;100340.28;;;21.52;37.74
49585;BME280;35491;49.142;9.210;2023-05-25T19:12:55;100343.41;;;21.56;37.59
49585;BME280;35491;49.142;9.210;2023-05-25T19:13:56;100338.63;;;21.51;37.70
49585;BME280;35491;49.142;9.210;2023-05-25T19:15:00;100343.00;;;21.52;37.48
49585;BME280;35491;49.142;9.210;2023-05-25T19:16:01;100345.91;;;21.50;37.71
49585;BME280;35491;49.142;9.210;2023-05-25T19:17:06;100336.31;;;21.41;37.77
49585;BME280;35491;49.142;9.210;2023-05-25T19:18:08;100345.09;;;21.43;37.54
49585;BME280;35491;49.142;9.210;2023-05-25T19:19:15;100343.41;;;21.42;37.82
49585;BME280;35491;49.142;9.210;2023-05-25T19:20:23;100347.00;;;21.43;37.42
49585;BME280;35491;49.142;9.210;2023-05-25T19:21:45;100347.19;;;21.48;37.47
49585;BME280;35491;49.142;9.210;2023-05-25T19:23:12;100345.50;;;21.47;37.34
49585;BME280;35491;49.142;9.210;2023-05-25T19:24:19;100351.81;;;21.47;37.54
49585;BME280;35491;49.142;9.210;2023-05-25T19:25:35;100351.34;;;21.57;37.64
49585;BME280;35491;49.142;9.210;2023-05-25T19:26:39;100348.03;;;21.42;37.67
49585;BME280;35491;49.142;9.210;2023-05-25T19:27:47;100350.13;;;21.46;37.56
49585;BME280;35491;49.142;9.210;2023-05-25T19:29:08;100355.56;;;21.46;37.37
49585;BME280;35491;49.142;9.210;2023-05-25T19:30:27;100352.63;;;21.41;37.38
49585;BME280;35491;49.142;9.210;2023-05-25T19:31:51;100356.19;;;21.42;37.71
49585;BME280;35491;49.142;9.210;2023-05-25T19:33:01;100357.66;;;21.44;37.60
49585;BME280;35491;49.142;9.210;2023-05-25T19:34:16;100355.97;;;21.37;37.40
49585;BME280;35491;49.142;9.210;2023-05-25T19:35:33;100359.94;;;21.34;37.49
49585;BME280;35491;49.142;9.210;2023-05-25T19:36:43;100353.44;;;21.22;37.84
49585;BME280;35491;49.142;9.210;2023-05-25T19:37:45;100356.59;;;21.25;37.69
49585;BME280;35491;49.142;9.210;2023-05-25T19:38:53;100358.25;;;21.26;37.59
49585;BME280;35491;49.142;9.210;2023-05-25T19:40:00;100359.72;;;21.22;37.55
49585;BME280;35491;49.142;9.210;2023-05-25T19:41:01;100360.97;;;21.26;37.70
49585;BME280;35491;49.142;9.210;2023-05-25T19:42:20;100367.06;;;21.35;37.72
49585;BME280;35491;49.142;9.210;2023-05-25T19:45:36;100363.91;;;21.25;38.14
49585;BME280;35491;49.142;9.210;2023-05-25T19:47:20;100377.09;;;21.28;37.74
49585;BME280;35491;49.142;9.210;2023-05-25T19:48:49;100375.19;;;21.28;37.92
49585;BME280;35491;49.142;9.210;2023-05-25T19:50:13;100372.69;;;21.27;38.24
49585;BME280;35491;49.142;9.210;2023-05-25T19:51:55;100368.50;;;21.31;38.29
49585;BME280;35491;49.142;9.210;2023-05-25T19:53:16;100368.31;;;21.26;38.50
49585;BME280;35491;49.142;9.210;2023-05-25T19:54:21;100374.31;;;21.08;38.68
49585;BME280;35491;49.142;9.210;2023-05-25T19:55:33;100373.53;;;21.14;39.07
49585;BME280;35491;49.142;9.210;2023-05-25T19:56:40;100378.31;;;21.12;38.82
49585;BME280;35491;49.142;9.210;2023-05-25T19:57:51;100374.13;;;21.02;39.00
49585;BME280;35491;49.142;9.210;2023-05-25T19:58:59;100379.13;;;20.99;39.02
49585;BME280;35491;49.142;9.210;2023-05-25T20:00:01;100378.31;;;21.05;39.24
49585;BME280;35491;49.142;9.210;2023-05-25T20:01:24;100374.16;;;21.09;39.23
49585;BME280;35491;49.142;9.210;2023-05-25T20:02:29;100377.91;;;21.08;39.00
49585;BME280;35491;49.142;9.210;2023-05-25T20:03:33;100382.72;;;21.13;38.98
49585;BME280;35491;49.142;9.210;2023-05-25T20:04:35;100386.47;;;21.12;38.97
49585;BME280;35491;49.142;9.210;2023-05-25T20:05:40;100389.59;;;21.09;39.04
49585;BME280;35491;49.142;9.210;2023-05-25T20:06:42;100390.63;;;20.94;39.12
49585;BME280;35491;49.142;9.210;2023-05-25T20:07:48;100384.56;;;20.99;39.25
49585;BME280;35491;49.142;9.210;2023-05-25T20:08:59;100384.75;;;20.84;39.35
49585;BME280;35491;49.142;9.210;2023-05-25T20:10:14;100390.16;;;20.84;39.40
49585;BME280;35491;49.142;9.210;2023-05-25T20:11:21;100390.38;;;20.82;39.09
49585;BME280;35491;49.142;9.210;2023-05-25T20:12:30;100390.34;;;20.76;39.17
49585;BME280;35491;49.142;9.210;2023-05-25T20:13:34;100385.34;;;20.79;39.24
49585;BME280;35491;49.142;9.210;2023-05-25T20:14:39;100391.22;;;20.83;38.95
49585;BME280;35491;49.142;9.210;2023-05-25T20:15:51;100394.56;;;20.85;38.97
49585;BME280;35491;49.142;9.210;2023-05-25T20:17:02;100385.97;;;20.88;38.89
49585;BME280;35491;49.142;9.210;2023-05-25T20:18:04;100388.94;;;20.93;39.28
49585;BME280;35491;49.142;9.210;2023-05-25T20:19:08;100389.56;;;20.95;39.17
49585;BME280;35491;49.142;9.210;2023-05-25T20:20:12;100378.06;;;20.93;38.89
49585;BME280;35491;49.142;9.210;2023-05-25T20:21:16;100386.22;;;20.93;38.73
49585;BME280;35491;49.142;9.210;2023-05-25T20:22:19;100388.72;;;20.95;38.91
49585;BME280;35491;49.142;9.210;2023-05-25T20:23:23;100387.25;;;20.85;39.43
49585;BME280;35491;49.142;9.210;2023-05-25T20:24:24;100389.75;;;20.80;39.66
49585;BME280;35491;49.142;9.210;2023-05-25T20:25:28;100391.81;;;20.78;39.75
49585;BME280;35491;49.142;9.210;2023-05-25T20:26:29;100387.63;;;20.76;39.87
49585;BME280;35491;49.142;9.210;2023-05-25T20:27:33;100391.41;;;20.75;39.65
49585;BME280;35491;49.142;9.210;2023-05-25T20:28:34;100394.31;;;20.80;39.67
49585;BME280;35491;49.142;9.210;2023-05-25T20:29:38;100393.91;;;20.76;39.53
49585;BME280;35491;49.142;9.210;2023-05-25T20:30:40;100384.31;;;20.80;39.71
49585;BME280;35491;49.142;9.210;2023-05-25T20:31:43;100395.81;;;20.82;39.77
49585;BME280;35491;49.142;9.210;2023-05-25T20:32:47;100394.75;;;20.77;39.64
49585;BME280;35491;49.142;9.210;2023-05-25T20:33:51;100391.59;;;20.80;39.69
49585;BME280;35491;49.142;9.210;2023-05-25T20:34:52;100395.34;;;20.79;39.79
49585;BME280;35491;49.142;9.210;2023-05-25T20:36:00;100399.25;;;20.69;40.19
49585;BME280;35491;49.142;9.210;2023-05-25T20:37:05;100400.09;;;20.63;40.42
49585;BME280;35491;49.142;9.210;2023-05-25T20:38:06;100400.47;;;20.60;40.47
49585;BME280;35491;49.142;9.210;2023-05-25T20:39:10;100397.97;;;20.58;40.44
49585;BME280;35491;49.142;9.210;2023-05-25T20:40:12;100403.19;;;20.53;40.42
49585;BME280;35491;49.142;9.210;2023-05-25T20:41:16;100402.28;;;20.39;40.58
49585;BME280;35491;49.142;9.210;2023-05-25T20:42:17;100398.69;;;20.32;40.99
49585;BME280;35491;49.142;9.210;2023-05-25T20:43:21;100394.72;;;20.28;41.17
49585;BME280;35491;49.142;9.210;2023-05-25T20:44:23;100401.97;;;20.21;41.31
49585;BME280;35491;49.142;9.210;2023-05-25T20:45:27;100407.78;;;20.18;41.27
49585;BME280;35491;49.142;9.210;2023-05-25T20:46:28;100401.69;;;20.09;41.84
49585;BME280;35491;49.142;9.210;2023-05-25T20:47:31;100396.47;;;20.07;41.72
49585;BME280;35491;49.142;9.210;2023-05-25T20:48:37;100403.34;;;20.10;41.76
49585;BME280;35491;49.142;9.210;2023-05-25T20:49:41;100413.34;;;20.03;41.69
49585;BME280;35491;49.142;9.210;2023-05-25T20:50:42;100403.91;;;19.99;42.02
49585;BME280;35491;49.142;9.210;2023-05-25T20:51:46;100401.66;;;20.02;41.65
49585;BME280;35491;49.142;9.210;2023-05-25T20:52:49;100408.72;;;20.03;41.45
49585;BME280;35491;49.142;9.210;2023-05-25T20:53:53;100403.06;;;19.98;42.02
49585;BME280;35491;49.142;9.210;2023-05-25T20:54:54;100407.22;;;19.94;41.81
49585;BME280;35491;49.142;9.210;2023-05-25T20:56:00;100412.03;;;19.92;42.28
49585;BME280;35491;49.142;9.210;2023-05-25T20:57:04;100406.78;;;19.90;42.18
49585;BME280;35491;49.142;9.210;2023-05-25T20:58:07;100409.44;;;19.84;42.35
49585;BME280;35491;49.142;9.210;2023-05-25T20:59:11;100411.28;;;19.83;42.51
49585;BME280;35491;49.142;9.210;2023-05-25T21:00:12;100416.16;;;19.88;42.34
49585;BME280;35491;49.142;9.210;2023-05-25T21:01:17;100416.66;;;19.76;42.59
49585;BME280;35491;49.142;9.210;2023-05-25T21:02:18;100420.00;;;19.78;42.73
49585;BME280;35491;49.142;9.210;2023-05-25T21:03:22;100414.19;;;19.82;42.60
49585;BME280;35491;49.142;9.210;2023-05-25T21:04:25;100418.38;;;19.84;42.74
49585;BME280;35491;49.142;9.210;2023-05-25T21:05:30;100420.94;;;19.86;42.72
49585;BME280;35491;49.142;9.210;2023-05-25T21:06:33;100421.78;;;19.86;42.62
49585;BME280;35491;49.142;9.210;2023-05-25T21:07:37;100428.34;;;19.77;43.09
49585;BME280;35491;49.142;9.210;2023-05-25T21:08:38;100424.78;;;19.76;43.18
49585;BME280;35491;49.142;9.210;2023-05-25T21:09:42;100433.72;;;19.70;43.60
49585;BME280;35491;49.142;9.210;2023-05-25T21:10:43;100432.03;;;19.69;43.76
49585;BME280;35491;49.142;9.210;2023-05-25T21:11:47;100426.09;;;19.59;44.33
49585;BME280;35491;49.142;9.210;2023-05-25T21:12:48;100432.69;;;19.49;45.00
49585;BME280;35491;49.142;9.210;2023-05-25T21:13:52;100437.88;;;19.44;45.12